createdAt,value
2022-08-07T00:00:09.155Z,15.05
2022-08-07T00:01:43.064Z,14.99
2022-08-07T00:02:39.938Z,14.92
2022-08-07T00:03:09.153Z,14.90
2022-08-07T00:04:09.518Z,14.97
2022-08-07T00:05:09.160Z,14.89
2022-08-07T00:06:09.046Z,14.90
2022-08-07T00:07:09.533Z,14.87
2022-08-07T00:08:09.007Z,14.87
2022-08-07T00:09:16.615Z,14.79
2022-08-07T00:10:26.953Z,14.81
2022-08-07T00:11:08.951Z,14.86
2022-08-07T00:12:08.933Z,14.85
2022-08-07T00:13:23.581Z,14.87
2022-08-07T00:14:08.897Z,14.89
2022-08-07T00:15:08.882Z,14.89
2022-08-07T00:16:08.863Z,14.90
2022-08-07T00:17:08.839Z,14.82
2022-08-07T00:18:08.822Z,14.85
2022-08-07T00:19:08.803Z,14.68
2022-08-07T00:20:08.786Z,14.73
2022-08-07T00:21:56.914Z,14.70
2022-08-07T00:22:08.748Z,14.70
2022-08-07T00:23:08.730Z,14.63
2022-08-07T00:24:08.716Z,14.58
2022-08-07T00:25:16.450Z,14.62
2022-08-07T00:26:13.141Z,14.59
2022-08-07T00:27:09.311Z,14.56
2022-08-07T00:28:08.641Z,14.62
2022-08-07T00:29:08.619Z,14.59
2022-08-07T00:30:26.632Z,14.68
2022-08-07T00:31:12.635Z,14.68
2022-08-07T00:32:08.563Z,14.78
2022-08-07T00:33:08.546Z,14.77
2022-08-07T00:34:09.276Z,14.70
2022-08-07T00:35:08.505Z,14.66
2022-08-07T00:36:08.490Z,14.71
2022-08-07T00:37:08.469Z,14.70
2022-08-07T00:38:08.453Z,14.63
2022-08-07T00:39:08.466Z,14.61
2022-08-07T00:40:08.415Z,14.71
2022-08-07T00:41:10.109Z,14.71
2022-08-07T00:42:08.377Z,14.58
2022-08-07T00:43:09.521Z,14.70
2022-08-07T00:44:08.339Z,14.62
2022-08-07T00:45:08.321Z,14.67
2022-08-07T00:46:08.300Z,14.71
2022-08-07T00:47:16.005Z,14.62
2022-08-07T00:48:10.887Z,14.68
2022-08-07T00:49:08.247Z,14.73
2022-08-07T00:50:18.944Z,14.71
2022-08-07T00:51:08.210Z,14.70
2022-08-07T00:52:08.192Z,14.70
2022-08-07T00:53:09.164Z,14.70
2022-08-07T00:54:08.150Z,14.77
2022-08-07T00:55:10.565Z,14.70
2022-08-07T00:56:13.915Z,14.68
2022-08-07T00:57:08.099Z,14.73
2022-08-07T00:58:08.078Z,14.59
2022-08-07T00:59:08.060Z,14.59
2022-08-07T01:00:08.045Z,14.66
2022-08-07T01:01:08.099Z,14.55
2022-08-07T01:02:14.148Z,14.55
2022-08-07T01:03:07.987Z,14.51
2022-08-07T01:04:07.966Z,14.48
2022-08-07T01:05:19.227Z,14.52
2022-08-07T01:06:07.929Z,14.44
2022-08-07T01:07:07.909Z,14.49
2022-08-07T01:08:08.967Z,14.41
2022-08-07T01:09:07.931Z,14.44
2022-08-07T01:10:11.126Z,14.37
2022-08-07T01:12:04.377Z,14.36
2022-08-07T01:12:28.358Z,14.41
2022-08-07T01:13:07.799Z,14.41
2022-08-07T01:14:07.779Z,14.38
2022-08-07T01:15:11.986Z,14.36
2022-08-07T01:16:07.740Z,14.38
2022-08-07T01:17:07.723Z,14.28
2022-08-07T01:18:07.701Z,14.28
2022-08-07T01:19:14.875Z,14.28
2022-08-07T01:20:08.060Z,14.18
2022-08-07T01:21:07.648Z,14.20
2022-08-07T01:22:08.837Z,14.12
2022-08-07T01:23:12.162Z,14.05
2022-08-07T01:24:07.592Z,14.08
2022-08-07T01:25:40.410Z,14.07
2022-08-07T01:26:07.551Z,14.03
2022-08-07T01:27:19.493Z,14.03
2022-08-07T01:28:07.516Z,14.01
2022-08-07T01:29:07.519Z,13.95
2022-08-07T01:30:07.477Z,13.98
2022-08-07T01:31:07.459Z,14.01
2022-08-07T01:32:13.353Z,13.87
2022-08-07T01:33:07.422Z,14.04
2022-08-07T01:34:07.402Z,13.87
2022-08-07T01:35:07.384Z,13.89
2022-08-07T01:36:07.538Z,13.87
2022-08-07T01:37:09.704Z,13.87
2022-08-07T01:38:07.330Z,13.87
2022-08-07T01:39:10.296Z,13.97
2022-08-07T01:40:07.291Z,13.87
2022-08-07T01:41:07.270Z,13.93
2022-08-07T01:42:39.982Z,13.83
2022-08-07T01:43:07.233Z,13.83
2022-08-07T01:44:07.215Z,13.93
2022-08-07T01:45:09.965Z,13.86
2022-08-07T01:46:08.105Z,13.85
2022-08-07T01:48:17.831Z,13.85
2022-08-07T01:48:19.445Z,13.82
2022-08-07T01:49:07.118Z,13.85
2022-08-07T01:50:07.098Z,13.71
2022-08-07T01:51:24.629Z,13.78
2022-08-07T01:52:07.063Z,13.78
2022-08-07T01:53:08.526Z,13.79
2022-08-07T01:54:12.266Z,13.71
2022-08-07T01:55:07.006Z,13.82
2022-08-07T01:56:06.983Z,13.79
2022-08-07T01:57:08.224Z,13.73
2022-08-07T01:58:29.099Z,13.73
2022-08-07T01:59:06.932Z,13.75
2022-08-07T02:00:12.915Z,13.70
2022-08-07T02:01:09.725Z,13.79
2022-08-07T02:02:06.881Z,13.76
2022-08-07T02:03:11.699Z,13.80
2022-08-07T02:04:06.890Z,13.79
2022-08-07T02:05:06.814Z,13.76
2022-08-07T02:06:08.915Z,13.71
2022-08-07T02:07:06.778Z,13.71
2022-08-07T02:08:06.759Z,13.70
2022-08-07T02:09:06.737Z,13.58
2022-08-07T02:10:06.718Z,13.64
2022-08-07T02:11:06.699Z,13.71
2022-08-07T02:12:06.679Z,13.64
2022-08-07T02:13:07.779Z,13.61
2022-08-07T02:14:06.640Z,13.64
2022-08-07T02:15:06.823Z,13.60
2022-08-07T02:16:07.544Z,13.61
2022-08-07T02:17:06.592Z,13.55
2022-08-07T02:18:06.689Z,13.57
2022-08-07T02:20:04.549Z,13.60
2022-08-07T02:20:09.954Z,13.61
2022-08-07T02:21:06.594Z,13.58
2022-08-07T02:22:07.883Z,13.61
2022-08-07T02:23:06.470Z,13.58
2022-08-07T02:24:06.457Z,13.54
2022-08-07T02:25:07.007Z,13.67
2022-08-07T02:26:26.721Z,13.65
2022-08-07T02:27:06.398Z,13.64
2022-08-07T02:28:06.995Z,13.58
2022-08-07T02:29:06.357Z,13.58
2022-08-07T02:30:07.439Z,13.57
2022-08-07T02:31:10.173Z,13.58
2022-08-07T02:32:06.296Z,13.60
2022-08-07T02:33:09.596Z,13.62
2022-08-07T02:34:11.166Z,13.58
2022-08-07T02:35:06.259Z,13.58
2022-08-07T02:36:30.256Z,13.61
2022-08-07T02:37:08.210Z,13.64
2022-08-07T02:38:06.179Z,13.57
2022-08-07T02:39:16.051Z,13.65
2022-08-07T02:40:29.686Z,13.64
2022-08-07T02:41:06.141Z,13.57
2022-08-07T02:42:10.326Z,13.67
2022-08-07T02:43:07.913Z,13.58
2022-08-07T02:44:06.065Z,13.71
2022-08-07T02:45:13.592Z,13.61
2022-08-07T02:46:06.031Z,13.61
2022-08-07T02:47:06.010Z,13.57
2022-08-07T02:48:10.311Z,13.64
2022-08-07T02:49:05.971Z,13.58
2022-08-07T02:50:05.948Z,13.62
2022-08-07T02:51:05.930Z,13.61
2022-08-07T02:52:05.917Z,13.55
2022-08-07T02:53:06.306Z,13.58
2022-08-07T02:54:05.869Z,13.61
2022-08-07T02:55:05.855Z,13.57
2022-08-07T02:56:11.287Z,13.67
2022-08-07T02:57:06.530Z,13.61
2022-08-07T02:58:05.794Z,13.61
2022-08-07T02:59:05.835Z,13.64
2022-08-07T03:00:11.130Z,13.61
2022-08-07T03:01:05.815Z,13.62
2022-08-07T03:02:05.750Z,13.54
2022-08-07T03:03:06.000Z,13.61
2022-08-07T03:04:07.172Z,13.55
2022-08-07T03:05:06.818Z,13.68
2022-08-07T03:06:05.637Z,13.62
2022-08-07T03:07:10.419Z,13.67
2022-08-07T03:08:08.220Z,13.58
2022-08-07T03:09:05.582Z,13.60
2022-08-07T03:10:05.569Z,13.52
2022-08-07T03:11:05.543Z,13.55
2022-08-07T03:12:05.523Z,13.52
2022-08-07T03:13:05.504Z,13.58
2022-08-07T03:14:05.483Z,13.47
2022-08-07T03:15:07.785Z,13.61
2022-08-07T03:16:05.446Z,13.58
2022-08-07T03:17:05.427Z,13.65
2022-08-07T03:18:05.405Z,13.55
2022-08-07T03:19:05.387Z,13.61
2022-08-07T03:20:05.366Z,13.57
2022-08-07T03:21:08.851Z,13.54
2022-08-07T03:22:05.327Z,13.54
2022-08-07T03:23:05.311Z,13.52
2022-08-07T03:24:17.944Z,13.52
2022-08-07T03:25:05.288Z,13.52
2022-08-07T03:26:05.251Z,13.57
2022-08-07T03:27:05.231Z,13.49
2022-08-07T03:28:09.609Z,13.60
2022-08-07T03:29:05.193Z,13.46
2022-08-07T03:30:05.175Z,13.42
2022-08-07T03:31:05.154Z,13.42
2022-08-07T03:32:05.134Z,13.43
2022-08-07T03:33:05.116Z,13.42
2022-08-07T03:34:05.095Z,13.43
2022-08-07T03:35:17.472Z,13.43
2022-08-07T03:36:05.057Z,13.42
2022-08-07T03:37:12.284Z,13.52
2022-08-07T03:38:05.019Z,13.47
2022-08-07T03:39:05.615Z,13.57
2022-08-07T03:40:14.808Z,13.54
2022-08-07T03:41:04.983Z,13.55
2022-08-07T03:42:04.939Z,13.57
2022-08-07T03:43:04.924Z,13.58
2022-08-07T03:44:04.901Z,13.50
2022-08-07T03:45:04.883Z,13.54
2022-08-07T03:46:10.375Z,13.46
2022-08-07T03:47:13.361Z,13.46
2022-08-07T03:48:04.823Z,13.39
2022-08-07T03:49:04.807Z,13.42
2022-08-07T03:50:04.785Z,13.47
2022-08-07T03:51:04.772Z,13.47
2022-08-07T03:52:04.762Z,13.39
2022-08-07T03:53:04.730Z,13.45
2022-08-07T03:54:33.380Z,13.40
2022-08-07T03:55:07.440Z,13.39
2022-08-07T03:56:05.170Z,13.31
2022-08-07T03:57:07.388Z,13.31
2022-08-07T03:58:34.485Z,13.23
2022-08-07T03:59:09.242Z,13.23
2022-08-07T04:00:04.636Z,13.26
2022-08-07T04:01:04.627Z,13.23
2022-08-07T04:02:04.550Z,13.24
2022-08-07T04:03:05.203Z,13.24
2022-08-07T04:04:04.969Z,13.11
2022-08-07T04:05:04.495Z,13.16
2022-08-07T04:06:04.472Z,13.20
2022-08-07T04:07:16.777Z,13.16
2022-08-07T04:08:04.433Z,13.19
2022-08-07T04:09:04.417Z,13.16
2022-08-07T04:10:04.393Z,13.16
2022-08-07T04:11:15.009Z,13.12
2022-08-07T04:12:27.804Z,13.11
2022-08-07T04:13:04.338Z,13.08
2022-08-07T04:14:10.393Z,13.11
2022-08-07T04:15:04.955Z,13.08
2022-08-07T04:16:04.288Z,13.11
2022-08-07T04:17:04.262Z,13.05
2022-08-07T04:18:56.469Z,13.03
2022-08-07T04:19:12.305Z,13.11
2022-08-07T04:20:04.201Z,13.05
2022-08-07T04:21:04.180Z,13.11
2022-08-07T04:22:06.145Z,13.06
2022-08-07T04:23:06.265Z,13.09
2022-08-07T04:24:07.854Z,13.06
2022-08-07T04:25:08.900Z,13.09
2022-08-07T04:26:04.082Z,13.09
2022-08-07T04:27:04.063Z,13.08
2022-08-07T04:28:04.043Z,13.02
2022-08-07T04:29:04.022Z,13.01
2022-08-07T04:30:04.676Z,13.02
2022-08-07T04:31:03.986Z,13.06
2022-08-07T04:32:10.806Z,13.06
2022-08-07T04:33:07.424Z,13.02
2022-08-07T04:34:03.926Z,13.06
2022-08-07T04:35:05.769Z,13.12
2022-08-07T04:36:06.414Z,12.98
2022-08-07T04:37:03.870Z,13.06
2022-08-07T04:38:06.922Z,13.06
2022-08-07T04:39:03.855Z,13.02
2022-08-07T04:40:03.809Z,13.08
2022-08-07T04:41:03.788Z,13.05
2022-08-07T04:42:03.769Z,13.08
2022-08-07T04:43:03.890Z,13.11
2022-08-07T04:44:12.515Z,13.08
2022-08-07T04:45:08.239Z,13.09
2022-08-07T04:46:03.690Z,13.06
2022-08-07T04:47:07.879Z,13.08
2022-08-07T04:48:07.732Z,13.08
2022-08-07T04:49:17.971Z,13.05
2022-08-07T04:50:04.825Z,13.09
2022-08-07T04:51:03.592Z,13.06
2022-08-07T04:52:03.570Z,13.09
2022-08-07T04:53:03.765Z,13.08
2022-08-07T04:54:06.485Z,13.08
2022-08-07T04:55:15.162Z,13.11
2022-08-07T04:58:09.996Z,13.13
2022-08-07T04:58:12.229Z,13.13
2022-08-07T04:58:12.969Z,13.11
2022-08-07T05:00:07.996Z,13.17
2022-08-07T05:00:11.477Z,13.16
2022-08-07T05:01:03.437Z,13.21
2022-08-07T05:02:03.378Z,13.23
2022-08-07T05:03:03.466Z,13.16
2022-08-07T05:04:08.630Z,13.24
2022-08-07T05:05:03.317Z,13.23
2022-08-07T05:06:03.297Z,13.30
2022-08-07T05:07:19.678Z,13.39
2022-08-07T05:08:03.258Z,13.37
2022-08-07T05:09:03.239Z,13.42
2022-08-07T05:10:04.514Z,13.45
2022-08-07T05:11:03.202Z,13.40
2022-08-07T05:12:03.179Z,13.37
2022-08-07T05:14:44.827Z,13.45
2022-08-07T05:14:55.369Z,13.40
2022-08-07T05:15:04.060Z,13.54
2022-08-07T05:16:04.714Z,13.52
2022-08-07T05:17:05.896Z,13.52
2022-08-07T05:18:09.018Z,13.57
2022-08-07T05:19:03.040Z,13.61
2022-08-07T05:20:06.551Z,13.67
2022-08-07T05:21:04.028Z,13.61
2022-08-07T05:22:04.779Z,13.62
2022-08-07T05:23:02.963Z,13.60
2022-08-07T05:24:02.946Z,13.61
2022-08-07T05:25:02.921Z,13.65
2022-08-07T05:26:15.225Z,13.70
2022-08-07T05:27:02.884Z,13.79
2022-08-07T05:28:20.628Z,13.80
2022-08-07T05:29:04.283Z,13.85
2022-08-07T05:30:02.824Z,13.85
2022-08-07T05:31:03.664Z,13.93
2022-08-07T05:32:02.786Z,13.91
2022-08-07T05:33:03.293Z,13.91
2022-08-07T05:34:05.520Z,13.86
2022-08-07T05:35:02.730Z,14.01
2022-08-07T05:36:02.708Z,14.03
2022-08-07T05:37:02.688Z,14.04
2022-08-07T05:38:08.988Z,14.05
2022-08-07T05:40:05.328Z,14.08
2022-08-07T05:40:05.731Z,14.05
2022-08-07T05:41:12.433Z,14.19
2022-08-07T05:42:07.359Z,14.19
2022-08-07T05:43:02.570Z,14.18
2022-08-07T05:44:11.754Z,14.30
2022-08-07T05:45:14.514Z,14.41
2022-08-07T05:46:02.584Z,14.45
2022-08-07T05:47:11.748Z,14.43
2022-08-07T05:48:03.288Z,14.52
2022-08-07T05:49:11.733Z,14.53
2022-08-07T05:50:02.504Z,14.66
2022-08-07T05:51:03.421Z,14.61
2022-08-07T05:52:02.394Z,14.62
2022-08-07T05:53:02.373Z,14.70
2022-08-07T05:54:13.678Z,14.73
2022-08-07T05:55:10.180Z,14.73
2022-08-07T05:56:05.653Z,14.74
2022-08-07T05:57:02.296Z,14.81
2022-08-07T05:58:02.280Z,14.85
2022-08-07T05:59:02.260Z,14.92
2022-08-07T06:00:02.250Z,14.94
2022-08-07T06:01:05.046Z,14.93
2022-08-07T06:02:02.298Z,14.92
2022-08-07T06:03:02.187Z,14.97
2022-08-07T06:04:02.164Z,14.99
2022-08-07T06:05:03.392Z,15.00
2022-08-07T06:06:02.128Z,15.11
2022-08-07T06:07:03.856Z,15.15
2022-08-07T06:08:13.791Z,15.14
2022-08-07T06:09:04.696Z,15.15
2022-08-07T06:10:05.637Z,15.23
2022-08-07T06:11:03.769Z,15.32
2022-08-07T06:12:02.011Z,15.29
2022-08-07T06:13:02.219Z,15.26
2022-08-07T06:14:12.853Z,15.37
2022-08-07T06:15:05.323Z,15.41
2022-08-07T06:16:01.937Z,15.43
2022-08-07T06:17:01.912Z,15.54
2022-08-07T06:18:01.896Z,15.51
2022-08-07T06:19:01.876Z,15.57
2022-08-07T06:20:04.030Z,15.57
2022-08-07T06:22:15.203Z,15.65
2022-08-07T06:22:16.075Z,15.62
2022-08-07T06:23:45.724Z,15.67
2022-08-07T06:24:45.475Z,15.75
2022-08-07T06:25:02.860Z,15.83
2022-08-07T06:26:02.050Z,15.80
2022-08-07T06:27:03.770Z,15.87
2022-08-07T06:28:02.855Z,15.87
2022-08-07T06:29:01.686Z,15.96
2022-08-07T06:30:01.663Z,15.98
2022-08-07T06:31:01.644Z,15.98
2022-08-07T06:32:01.664Z,16.03
2022-08-07T06:33:01.605Z,16.03
2022-08-07T06:34:01.590Z,16.17
2022-08-07T06:35:01.569Z,16.10
2022-08-07T06:36:13.581Z,16.16
2022-08-07T06:37:02.714Z,16.18
2022-08-07T06:38:01.510Z,16.18
2022-08-07T06:40:13.719Z,16.17
2022-08-07T06:40:16.739Z,16.34
2022-08-07T06:41:01.516Z,16.24
2022-08-07T06:42:03.399Z,16.22
2022-08-07T06:43:01.418Z,16.29
2022-08-07T06:44:10.762Z,16.37
2022-08-07T06:45:01.377Z,16.29
2022-08-07T06:46:01.362Z,16.34
2022-08-07T06:47:10.222Z,16.32
2022-08-07T06:48:01.322Z,16.39
2022-08-07T06:49:04.348Z,16.41
2022-08-07T06:50:01.285Z,16.46
2022-08-07T06:51:08.153Z,16.50
2022-08-07T06:52:07.229Z,16.44
2022-08-07T06:53:04.117Z,16.49
2022-08-07T06:55:29.607Z,16.55
2022-08-07T06:55:32.196Z,16.62
2022-08-07T06:56:02.126Z,16.66
2022-08-07T06:57:01.150Z,16.76
2022-08-07T06:58:01.134Z,16.74
2022-08-07T07:00:13.187Z,16.80
2022-08-07T07:00:16.874Z,16.66
2022-08-07T07:01:01.074Z,16.77
2022-08-07T07:02:01.130Z,16.94
2022-08-07T07:03:08.678Z,16.92
2022-08-07T07:04:08.280Z,16.84
2022-08-07T07:05:01.120Z,16.84
2022-08-07T07:06:04.355Z,16.84
2022-08-07T07:07:01.871Z,16.82
2022-08-07T07:08:06.410Z,16.87
2022-08-07T07:09:00.924Z,16.92
2022-08-07T07:10:00.919Z,16.97
2022-08-07T07:11:01.160Z,17.01
2022-08-07T07:12:08.780Z,17.02
2022-08-07T07:13:00.857Z,17.05
2022-08-07T07:14:02.277Z,17.17
2022-08-07T07:15:00.811Z,17.12
2022-08-07T07:16:00.795Z,17.14
2022-08-07T07:17:00.773Z,17.20
2022-08-07T07:18:00.764Z,17.16
2022-08-07T07:19:00.738Z,17.27
2022-08-07T07:20:00.719Z,17.30
2022-08-07T07:21:00.701Z,17.37
2022-08-07T07:22:04.786Z,17.38
2022-08-07T07:24:08.191Z,17.44
2022-08-07T07:24:11.129Z,17.44
2022-08-07T07:25:14.037Z,17.53
2022-08-07T07:26:35.841Z,17.53
2022-08-07T07:27:00.594Z,17.49
2022-08-07T07:28:03.026Z,17.54
2022-08-07T07:29:56.217Z,17.69
2022-08-07T07:30:09.783Z,17.63
2022-08-07T07:31:00.511Z,17.65
2022-08-07T07:32:00.498Z,17.79
2022-08-07T07:33:00.476Z,17.73
2022-08-07T07:34:00.458Z,17.87
2022-08-07T07:35:00.445Z,17.75
2022-08-07T07:36:04.965Z,17.94
2022-08-07T07:37:14.273Z,17.95
2022-08-07T07:38:02.593Z,18.05
2022-08-07T07:39:00.411Z,17.98
2022-08-07T07:40:00.353Z,18.05
2022-08-07T07:41:02.181Z,18.05
2022-08-07T07:42:13.385Z,18.02
2022-08-07T07:43:11.698Z,18.02
2022-08-07T07:44:16.775Z,18.06
2022-08-07T07:45:00.264Z,18.11
2022-08-07T07:46:37.490Z,18.16
2022-08-07T07:47:11.948Z,18.16
2022-08-07T07:48:00.201Z,18.16
2022-08-07T07:49:08.888Z,18.19
2022-08-07T07:50:34.581Z,18.18
2022-08-07T07:51:00.144Z,18.21
2022-08-07T07:52:00.296Z,18.21
2022-08-07T07:53:00.803Z,18.34
2022-08-07T07:54:00.099Z,18.28
2022-08-07T07:55:00.070Z,18.30
2022-08-07T07:56:01.017Z,18.42
2022-08-07T07:57:00.033Z,18.42
2022-08-07T07:58:00.075Z,18.48
2022-08-07T07:59:00.002Z,18.43
2022-08-07T07:59:59.988Z,18.52
2022-08-07T08:00:59.961Z,18.49
2022-08-07T08:02:05.308Z,18.48
2022-08-07T08:03:01.207Z,18.51
2022-08-07T08:04:09.642Z,18.55
2022-08-07T08:04:59.889Z,18.64
2022-08-07T08:05:59.872Z,18.66
2022-08-07T08:07:00.658Z,18.70
2022-08-07T08:08:01.358Z,18.68
2022-08-07T08:09:00.379Z,18.81
2022-08-07T08:10:04.998Z,18.73
2022-08-07T08:10:59.779Z,18.74
2022-08-07T08:12:03.943Z,18.81
2022-08-07T08:13:00.474Z,18.85
2022-08-07T08:13:59.725Z,18.85
2022-08-07T08:14:59.748Z,18.97
2022-08-07T08:16:00.843Z,18.91
2022-08-07T08:17:56.418Z,18.98
2022-08-07T08:17:59.892Z,19.08
2022-08-07T08:19:00.432Z,19.08
2022-08-07T08:20:18.222Z,19.01
2022-08-07T08:20:59.597Z,19.12
2022-08-07T08:22:03.288Z,19.15
2022-08-07T08:22:59.560Z,19.20
2022-08-07T08:23:59.550Z,19.19
2022-08-07T08:25:18.210Z,19.22
2022-08-07T08:26:03.380Z,19.20
2022-08-07T08:26:59.490Z,19.17
2022-08-07T08:28:01.946Z,19.19
2022-08-07T08:28:59.456Z,19.19
2022-08-07T08:29:59.437Z,19.20
2022-08-07T08:30:59.446Z,19.22
2022-08-07T08:32:18.274Z,19.29
2022-08-07T08:32:59.479Z,19.34
2022-08-07T08:33:59.369Z,19.34
2022-08-07T08:34:59.345Z,19.37
2022-08-07T08:35:59.331Z,19.32
2022-08-07T08:36:59.312Z,19.38
2022-08-07T08:38:03.604Z,19.45
2022-08-07T08:38:59.337Z,19.38
2022-08-07T08:39:59.346Z,19.53
2022-08-07T08:40:59.241Z,19.52
2022-08-07T08:41:59.490Z,19.57
2022-08-07T08:42:59.204Z,19.57
2022-08-07T08:43:59.515Z,19.63
2022-08-07T08:44:59.171Z,19.66
2022-08-07T08:46:01.038Z,19.62
2022-08-07T08:46:59.133Z,19.60
2022-08-07T08:47:59.122Z,19.66
2022-08-07T08:48:59.095Z,19.66
2022-08-07T08:50:04.969Z,19.75
2022-08-07T08:50:59.064Z,19.70
2022-08-07T08:52:14.312Z,19.66
2022-08-07T08:52:59.027Z,19.74
2022-08-07T08:53:59.964Z,19.81
2022-08-07T08:54:58.993Z,19.92
2022-08-07T08:55:59.292Z,19.90
2022-08-07T08:56:58.955Z,19.87
2022-08-07T08:57:58.940Z,19.84
2022-08-07T08:58:58.978Z,19.85
2022-08-07T08:59:58.904Z,19.84
2022-08-07T09:00:58.922Z,19.93
2022-08-07T09:01:59.493Z,19.84
2022-08-07T09:02:58.963Z,19.78
2022-08-07T09:03:58.842Z,19.84
2022-08-07T09:04:59.003Z,19.82
2022-08-07T09:05:58.797Z,19.77
2022-08-07T09:06:58.778Z,19.94
2022-08-07T09:07:58.827Z,19.84
2022-08-07T09:08:58.745Z,19.97
2022-08-07T09:09:58.729Z,19.94
2022-08-07T09:10:58.710Z,20.00
2022-08-07T09:12:08.895Z,19.99
2022-08-07T09:12:58.675Z,19.94
2022-08-07T09:13:58.656Z,19.97
2022-08-07T09:14:59.714Z,20.04
2022-08-07T09:16:22.377Z,20.07
2022-08-07T09:16:58.615Z,20.15
2022-08-07T09:18:07.213Z,20.18
2022-08-07T09:18:59.025Z,20.22
2022-08-07T09:19:59.169Z,20.21
2022-08-07T09:21:01.102Z,20.21
2022-08-07T09:22:40.029Z,20.19
2022-08-07T09:24:30.451Z,20.27
2022-08-07T09:24:34.079Z,20.26
2022-08-07T09:25:00.554Z,20.27
2022-08-07T09:25:58.448Z,20.29
2022-08-07T09:26:58.434Z,20.24
2022-08-07T09:28:01.224Z,20.33
2022-08-07T09:30:03.805Z,20.34
2022-08-07T09:30:04.150Z,20.39
2022-08-07T09:30:58.411Z,20.48
2022-08-07T09:31:58.344Z,20.55
2022-08-07T09:32:58.328Z,20.56
2022-08-07T09:33:58.389Z,20.58
2022-08-07T09:34:58.293Z,20.66
2022-08-07T09:36:05.103Z,20.64
2022-08-07T09:36:58.259Z,20.67
2022-08-07T09:37:58.241Z,20.78
2022-08-07T09:38:58.534Z,20.75
2022-08-07T09:39:59.504Z,20.85
2022-08-07T09:40:58.187Z,20.86
2022-08-07T09:42:03.104Z,20.86
2022-08-07T09:42:58.154Z,20.95
2022-08-07T09:44:05.545Z,20.88
2022-08-07T09:47:23.554Z,20.90
2022-08-07T09:47:49.988Z,20.96
2022-08-07T09:47:51.179Z,20.98
2022-08-07T09:48:01.770Z,20.98
2022-08-07T09:50:01.083Z,21.11
2022-08-07T09:50:04.224Z,21.13
2022-08-07T09:50:59.525Z,21.28
2022-08-07T09:52:16.788Z,21.38
2022-08-07T09:52:58.015Z,21.53
2022-08-07T09:54:02.310Z,21.59
2022-08-07T09:54:57.946Z,21.77
2022-08-07T09:56:04.133Z,21.97
2022-08-07T09:56:58.008Z,22.14
2022-08-07T09:57:57.925Z,22.26
2022-08-07T09:58:57.880Z,22.34
2022-08-07T10:00:01.417Z,22.43
2022-08-07T10:00:57.846Z,22.47
2022-08-07T10:01:57.911Z,22.37
2022-08-07T10:02:57.815Z,22.44
2022-08-07T10:04:05.293Z,22.51
2022-08-07T10:04:57.811Z,22.71
2022-08-07T10:06:01.276Z,22.80
2022-08-07T10:06:57.747Z,23.17
2022-08-07T10:07:58.248Z,23.36
2022-08-07T10:08:57.730Z,23.44
2022-08-07T10:10:00.683Z,23.81
2022-08-07T10:11:59.737Z,23.99
2022-08-07T10:12:01.070Z,24.22
2022-08-07T10:12:57.649Z,24.16
2022-08-07T10:14:01.981Z,24.28
2022-08-07T10:14:57.612Z,24.14
2022-08-07T10:15:57.594Z,24.04
2022-08-07T10:16:59.530Z,23.89
2022-08-07T10:18:00.785Z,23.74
2022-08-07T10:18:57.548Z,23.64
2022-08-07T10:19:57.532Z,23.51
2022-08-07T10:20:57.517Z,23.42
2022-08-07T10:22:14.331Z,23.33
2022-08-07T10:22:57.483Z,23.55
2022-08-07T10:24:05.847Z,23.89
2022-08-07T10:24:57.610Z,24.09
2022-08-07T10:25:57.435Z,24.44
2022-08-07T10:26:57.422Z,24.79
2022-08-07T10:27:57.417Z,24.99
2022-08-07T10:28:57.390Z,25.36
2022-08-07T10:29:57.373Z,25.46
2022-08-07T10:30:57.357Z,25.66
2022-08-07T10:31:57.341Z,25.55
2022-08-07T10:32:59.671Z,25.19
2022-08-07T10:34:06.083Z,24.86
2022-08-07T10:34:57.296Z,24.65
2022-08-07T10:36:10.874Z,24.56
2022-08-07T10:36:57.265Z,24.50
2022-08-07T10:38:10.052Z,24.53
2022-08-07T10:38:57.236Z,24.51
2022-08-07T10:40:03.251Z,24.40
2022-08-07T10:40:57.204Z,24.46
2022-08-07T10:42:01.635Z,24.62
2022-08-07T10:42:57.176Z,25.07
2022-08-07T10:44:02.351Z,25.06
2022-08-07T10:44:57.142Z,25.12
2022-08-07T10:45:58.679Z,25.34
2022-08-07T10:46:57.113Z,25.39
2022-08-07T10:48:03.106Z,25.40
2022-08-07T10:48:57.084Z,25.43
2022-08-07T10:49:57.068Z,25.52
2022-08-07T10:50:57.228Z,25.61
2022-08-07T10:52:01.825Z,25.77
2022-08-07T10:52:57.022Z,25.74
2022-08-07T10:54:00.123Z,25.92
2022-08-07T10:55:01.433Z,25.96
2022-08-07T10:55:56.976Z,26.15
2022-08-07T10:56:56.962Z,26.26
2022-08-07T10:57:56.947Z,26.39
2022-08-07T10:58:59.811Z,26.18
2022-08-07T10:59:56.918Z,25.81
2022-08-07T11:00:57.043Z,25.54
2022-08-07T11:02:05.223Z,25.40
2022-08-07T11:02:56.910Z,25.16
2022-08-07T11:04:11.035Z,24.86
2022-08-07T11:04:56.848Z,24.74
2022-08-07T11:05:56.831Z,25.14
2022-08-07T11:06:56.826Z,25.36
2022-08-07T11:08:01.247Z,25.31
2022-08-07T11:08:56.786Z,24.96
2022-08-07T11:10:09.745Z,24.68
2022-08-07T11:10:59.951Z,24.63
2022-08-07T11:11:59.154Z,24.38
2022-08-07T11:13:01.629Z,24.29
2022-08-07T11:14:43.606Z,24.21
2022-08-07T11:15:00.577Z,24.29
2022-08-07T11:15:56.683Z,24.13
2022-08-07T11:17:01.893Z,23.99
2022-08-07T11:17:56.655Z,23.82
2022-08-07T11:18:56.644Z,23.73
2022-08-07T11:19:56.623Z,23.70
2022-08-07T11:20:56.610Z,23.64
2022-08-07T11:21:56.595Z,23.64
2022-08-07T11:22:56.641Z,23.45
2022-08-07T11:23:56.566Z,23.39
2022-08-07T11:24:56.555Z,23.36
2022-08-07T11:25:56.535Z,23.25
2022-08-07T11:26:56.522Z,23.29
2022-08-07T11:28:03.124Z,23.26
2022-08-07T11:28:56.492Z,23.20
2022-08-07T11:30:17.597Z,23.17
2022-08-07T11:30:56.461Z,23.11
2022-08-07T11:31:56.449Z,22.92
2022-08-07T11:32:56.433Z,22.98
2022-08-07T11:34:00.452Z,22.92
2022-08-07T11:34:56.403Z,22.84
2022-08-07T11:35:59.473Z,22.86
2022-08-07T11:36:56.633Z,22.84
2022-08-07T11:37:57.837Z,22.81
2022-08-07T11:38:56.468Z,22.86
2022-08-07T11:40:01.366Z,23.04
2022-08-07T11:40:56.310Z,23.25
2022-08-07T11:42:01.747Z,23.33
2022-08-07T11:42:56.283Z,23.37
2022-08-07T11:44:12.270Z,23.40
2022-08-07T11:44:57.670Z,23.55
2022-08-07T11:45:56.234Z,23.67
2022-08-07T11:46:56.220Z,23.59
2022-08-07T11:47:59.480Z,23.55
2022-08-07T11:49:51.563Z,23.44
2022-08-07T11:50:31.072Z,23.45
2022-08-07T11:50:57.226Z,23.37
2022-08-07T11:51:56.141Z,23.21
2022-08-07T11:52:56.127Z,23.28
2022-08-07T11:54:01.360Z,23.34
2022-08-07T11:54:56.098Z,23.37
2022-08-07T11:56:09.742Z,23.40
2022-08-07T11:56:56.299Z,23.44
2022-08-07T11:58:00.640Z,23.42
2022-08-07T11:58:56.079Z,23.52
2022-08-07T12:00:10.859Z,23.45
2022-08-07T12:01:02.631Z,23.47
2022-08-07T12:02:00.436Z,23.52
2022-08-07T12:02:56.043Z,23.63
2022-08-07T12:03:55.985Z,23.54
2022-08-07T12:04:55.955Z,23.51
2022-08-07T12:05:58.259Z,23.52
2022-08-07T12:07:00.985Z,23.52
2022-08-07T12:08:03.515Z,23.51
2022-08-07T12:08:55.883Z,23.62
2022-08-07T12:09:55.865Z,23.64
2022-08-07T12:11:08.109Z,23.69
2022-08-07T12:12:09.094Z,23.82
2022-08-07T12:12:55.821Z,23.74
2022-08-07T12:13:55.802Z,23.70
2022-08-07T12:15:00.460Z,23.63
2022-08-07T12:16:05.724Z,23.55
2022-08-07T12:16:55.761Z,23.54
2022-08-07T12:17:58.846Z,23.47
2022-08-07T12:18:56.300Z,23.56
2022-08-07T12:19:56.904Z,23.40
2022-08-07T12:20:55.696Z,23.45
2022-08-07T12:22:37.521Z,23.39
2022-08-07T12:22:56.575Z,23.37
2022-08-07T12:24:07.345Z,23.28
2022-08-07T12:25:02.267Z,23.25
2022-08-07T12:26:22.361Z,23.23
2022-08-07T12:26:55.606Z,23.23
2022-08-07T12:28:08.532Z,23.17
2022-08-07T12:28:55.574Z,23.18
2022-08-07T12:29:55.558Z,23.14
2022-08-07T12:30:55.585Z,23.16
2022-08-07T12:32:04.025Z,23.14
2022-08-07T12:32:55.635Z,23.18
2022-08-07T12:33:56.443Z,23.21
2022-08-07T12:34:55.936Z,23.20
2022-08-07T12:35:57.681Z,23.18
2022-08-07T12:36:55.473Z,23.18
2022-08-07T12:38:11.289Z,23.13
2022-08-07T12:38:57.544Z,23.20
2022-08-07T12:39:55.515Z,23.20
2022-08-07T12:40:55.438Z,23.16
2022-08-07T12:41:55.371Z,23.16
2022-08-07T12:42:57.408Z,23.17
2022-08-07T12:44:03.092Z,23.25
2022-08-07T12:44:55.326Z,23.25
2022-08-07T12:45:55.311Z,23.34
2022-08-07T12:46:55.325Z,23.36
2022-08-07T12:47:55.310Z,23.39
2022-08-07T12:48:55.286Z,23.39
2022-08-07T12:50:00.275Z,23.40
2022-08-07T12:50:55.234Z,23.54
2022-08-07T12:52:13.952Z,23.48